Airfield :
LOGIN :

Register | Disclaimer

   EN    FR    IT 

 










Legend :    VFR   Marginal VFR   IFR   Intensive IFR   Very Intensive IFR
Visi :
Ceiling :
>= 8 km
>= 3000ft
5 to 8 km
1000 to 3000 ft
1500m to 5 km
500 to 1000 ft
800 to 1500m
200 to 500 ft
< 800m
< 200 ft
Symbols :   Thunderstorms  Fog  Heavy snow  Heavy precipitations  Wind > 20 kt
SIGMETs :     Misc.  Thunderstorms  Icing  Turbulence  Mountain Waves  Volcanic Ashes






- Airport Elevation : 499 ft
- IATA code : TLS


LFBO - Toulouse / Blagnac

CURRENT METAR :
  • 050630Z AUTO 22005KT 9999 SCT019 OVC043 18/16 Q1016 NOSIG

EXPIRED METARs :
  • 050600Z AUTO VRB06KT 9999 OVC019 17/16 Q1016 TEMPO BKN012
  • 050530Z AUTO 21005KT 9999 BKN020 OVC047 17/16 Q1016 TEMPO BKN007
  • 050500Z AUTO 24004KT 190V280 9999 FEW013 BKN021 OVC048 17/16 Q1016 TEMPO 3000 BR BECMG BKN007
  • 050430Z AUTO 22005KT 9999 SCT012 BKN022 OVC160 17/16 Q1016 TEMPO 3000 BR BECMG BKN007
  • 050400Z AUTO 22005KT 9999 FEW009 OVC160 16/15 Q1016 TEMPO 3000 BR BKN004

TAF TAF LFBO
Valid from the 05 at 06:00 until the 06 at 12:00 UTC


050500Z 0506/0612 VRB03KT 9999 SCT012 BKN025
PROB40
TEMPO 0506/0507 BKN012
BECMG 0508/0510 29008KT SCT030
BECMG 0512/0514 CAVOK
TEMPO 0518/0609 BKN040
ATIS : +33 5 62 74 66 36



MET'MAP, your aeronautical weather chart ! - Copyright ORBIFLY December 2007 - Disclaimer

ORBIFLY MET'MAP TEAM :

Programming & Development : Alexandra Zaïnal
Concept & original design : Baudouin d'Aumeries
Assistance for programming : Marc-Olivier Méhu
Technical & hardware support : Manuel Goepfert

Contact : metmap@orbifly.com




SOURCES & CREDITS :

   NOAA